createdAt,value
2022-11-25T00:05:00.730Z,8.22
2022-11-25T00:15:02.083Z,8.19
2022-11-25T00:25:03.870Z,8.24
2022-11-25T00:35:05.478Z,8.29
2022-11-25T00:45:07.535Z,8.33
2022-11-25T00:55:09.319Z,8.38
2022-11-25T01:05:10.695Z,8.45
2022-11-25T01:15:12.525Z,8.51
2022-11-25T01:25:13.866Z,8.54
2022-11-25T01:35:15.207Z,8.59
2022-11-25T01:45:24.537Z,8.82
2022-11-25T01:55:30.881Z,8.83
2022-11-25T02:05:55.650Z,8.88
2022-11-25T02:15:57.011Z,8.97
2022-11-25T02:25:58.602Z,8.99
2022-11-25T02:36:02.889Z,9.19
2022-11-25T02:46:10.274Z,9.20
2022-11-25T02:56:13.976Z,9.16
2022-11-25T03:06:15.415Z,9.16
2022-11-25T03:16:16.811Z,9.22
2022-11-25T03:26:18.187Z,9.29
2022-11-25T03:36:20.674Z,9.27
2022-11-25T03:46:22.186Z,9.38
2022-11-25T03:56:23.654Z,9.33
2022-11-25T04:06:24.980Z,9.35
2022-11-25T04:16:26.615Z,9.29
2022-11-25T04:26:28.043Z,9.30
2022-11-25T04:36:29.358Z,9.23
2022-11-25T04:46:37.379Z,9.27
2022-11-25T04:56:38.732Z,9.26
2022-11-25T05:06:40.046Z,9.22
2022-11-25T05:16:41.502Z,9.21
2022-11-25T05:26:42.879Z,9.17
2022-11-25T05:36:44.253Z,9.17
2022-11-25T05:46:46.544Z,9.13
2022-11-25T05:56:47.956Z,9.12
2022-11-25T06:06:50.361Z,9.13
2022-11-25T06:16:52.203Z,9.06
2022-11-25T06:26:53.524Z,9.05
2022-11-25T06:36:55.025Z,8.95
2022-11-25T06:46:56.442Z,8.94
2022-11-25T06:56:57.793Z,8.90
2022-11-25T07:06:59.119Z,8.93
2022-11-25T07:17:00.586Z,8.85
2022-11-25T07:27:02.035Z,8.83
2022-11-25T07:37:03.443Z,8.75
2022-11-25T07:47:05.034Z,8.79
2022-11-25T07:57:06.418Z,8.80
2022-11-25T08:07:07.733Z,8.80
2022-11-25T08:17:09.299Z,8.84
2022-11-25T08:27:10.636Z,8.75
2022-11-25T08:37:11.983Z,8.79
2022-11-25T08:47:13.322Z,8.83
2022-11-25T08:57:15.047Z,8.86
2022-11-25T09:07:16.589Z,8.91
2022-11-25T09:17:18.106Z,8.97
2022-11-25T09:27:19.639Z,8.99
2022-11-25T09:37:20.997Z,9.01
2022-11-25T09:47:31.870Z,9.06
2022-11-25T09:57:43.186Z,9.11
2022-11-25T10:07:49.807Z,9.21
2022-11-25T10:17:55.727Z,9.20
2022-11-25T10:28:20.875Z,9.36
2022-11-25T10:39:00.634Z,9.58
2022-11-25T10:49:12.353Z,9.55
2022-11-25T10:59:21.927Z,9.63
2022-11-25T11:09:31.171Z,9.76
2022-11-25T11:19:32.527Z,10.01
2022-11-25T11:29:33.911Z,10.15
2022-11-25T11:40:06.414Z,10.25
2022-11-25T11:50:24.899Z,10.41
2022-11-25T12:00:28.995Z,10.47
2022-11-25T12:10:38.818Z,10.57
2022-11-25T12:20:57.369Z,10.67
2022-11-25T12:31:18.495Z,10.70
2022-11-25T12:41:41.701Z,10.77
2022-11-25T12:51:59.459Z,10.80
2022-11-25T13:02:25.730Z,10.82
2022-11-25T13:12:48.100Z,10.88
2022-11-25T13:23:04.936Z,10.86
2022-11-25T13:33:09.243Z,10.94
2022-11-25T13:43:23.026Z,10.92
2022-11-25T13:53:34.178Z,10.99
2022-11-25T14:03:44.727Z,10.96
2022-11-25T14:13:54.997Z,10.97
2022-11-25T14:24:15.314Z,10.99
2022-11-25T14:34:51.919Z,10.94
2022-11-25T14:44:56.195Z,10.96
2022-11-25T14:54:59.681Z,10.94
2022-11-25T15:05:03.245Z,10.88
2022-11-25T15:15:05.170Z,10.86
2022-11-25T15:25:14.127Z,10.82
2022-11-25T15:35:22.558Z,10.77
2022-11-25T15:45:24.132Z,10.73
2022-11-25T15:55:34.088Z,10.70
2022-11-25T16:05:37.762Z,10.68
2022-11-25T16:16:07.077Z,10.65
2022-11-25T16:26:12.131Z,10.67
2022-11-25T16:36:13.518Z,10.63
2022-11-25T16:46:19.887Z,10.60
2022-11-25T16:56:26.704Z,10.55
2022-11-25T17:06:29.873Z,10.51
2022-11-25T17:16:31.568Z,10.42
2022-11-25T17:26:38.635Z,10.45
2022-11-25T17:36:40.132Z,10.45
2022-11-25T17:46:41.503Z,10.42
2022-11-25T17:56:49.190Z,10.40
2022-11-25T18:06:53.979Z,10.36
2022-11-25T18:16:57.838Z,10.30
2022-11-25T18:26:59.279Z,10.25
2022-11-25T18:37:02.443Z,10.18
2022-11-25T18:47:05.354Z,10.18
2022-11-25T18:57:06.907Z,10.16
2022-11-25T19:07:08.463Z,10.16
2022-11-25T19:17:24.000Z,10.18
2022-11-25T19:27:26.430Z,10.14
2022-11-25T19:37:30.081Z,10.08
2022-11-25T19:47:31.439Z,10.01
2022-11-25T19:57:32.746Z,9.94
2022-11-25T20:07:34.762Z,9.85
2022-11-25T20:17:37.832Z,9.69
2022-11-25T20:27:39.230Z,9.63
2022-11-25T20:37:51.421Z,9.51
2022-11-25T20:47:53.047Z,9.43
2022-11-25T20:57:54.444Z,9.36
2022-11-25T21:07:55.852Z,9.25
2022-11-25T21:17:58.182Z,9.17
2022-11-25T21:27:59.868Z,9.05
2022-11-25T21:38:05.385Z,8.83
2022-11-25T21:48:18.264Z,8.59
2022-11-25T21:58:25.226Z,8.39
2022-11-25T22:08:26.616Z,8.18
2022-11-25T22:18:31.627Z,7.99
2022-11-25T22:28:34.970Z,7.81
2022-11-25T22:38:36.330Z,7.56
2022-11-25T22:48:38.916Z,7.45
2022-11-25T22:58:40.244Z,7.36
2022-11-25T23:08:41.663Z,7.25
2022-11-25T23:18:45.759Z,7.08
2022-11-25T23:28:47.080Z,7.10
2022-11-25T23:38:56.698Z,7.11
2022-11-25T23:49:02.910Z,7.08
2022-11-25T23:59:12.269Z,7.05
